OMAL/AAN METAR and TAF weather

Enter ICAO airport designator
Station Type Date Time Source
OMAL METAR 2019/10/22 16:00 UTC NOAA

OMAL 221600Z 34012KT 7000 NSC 29/22 Q1012 NOSIG


Station Type Date Time Source
OMAL Decoded METAR 2019/10/22 16:00 UTC NOAA

Al Ain International Airport, United Arab Emirates (OMAL) 24-16N 055-36E 262M
Oct 22, 2019 - 12:00 PM EDT / 2019.10.22 1600 UTC
Wind: from the NNW (340 degrees) at 14 MPH (12 KT):0
Visibility: 4 mile(s):0
Temperature: 84 F (29 C)
Dew Point: 71 F (22 C)
Relative Humidity: 65%
Pressure (altimeter): 29.88 in. Hg (1012 hPa)
ob: OMAL 221600Z 34012KT 7000 NSC 29/22 Q1012 NOSIG
cycle: 16

Station Type Date Time Source
OMAL TAF 2019/10/22 12:03 UTC NOAA

TAF OMAL 221100Z 2212/2318 25007KT 8000 NSC
BECMG 2213/2214 34013KT
BECMG 2218/2220 07006KT
BECMG 2302/2304 15012KT
BECMG 2311/2313 32011KT

Example: see airport list